Time;durP1;ratioP1;P1;durP2;ratioP2;P2;SDS_P1;SDS_P2;PMS_P1;PMS_P2;Temp;Humidity;BMP_temperature;BMP_pressure;BME280_temperature;BME280_humidity;BME280_pressure;Samples;Min_cycle;Max_cycle;Signal;HPM_P1;HPM_P2
2022/10/26 00:06:47;;;;;;;1.10;0.80;;;;;;;17.51;100.00;101204.56;20807151;28;20060;-76
2022/10/26 00:16:48;;;;;;;1.50;0.80;;;;;;;17.50;100.00;101190.25;20806866;28;20054;-76
2022/10/26 00:26:50;;;;;;;0.60;0.60;;;;;;;17.20;100.00;101142.50;20807011;28;20061;-75
2022/10/26 00:36:51;;;;;;;1.15;0.68;;;;;;;17.50;100.00;101186.72;20803766;28;20048;-76
2022/10/26 00:46:53;;;;;;;0.70;0.68;;;;;;;17.38;100.00;101173.25;20804390;28;20183;-75
2022/10/26 00:56:54;;;;;;;0.70;0.70;;;;;;;17.39;100.00;101171.44;20802538;28;20134;-75
2022/10/26 01:06:56;;;;;;;1.02;0.70;;;;;;;17.44;100.00;101179.13;20802607;28;20053;-76
2022/10/26 01:17:11;;;;;;;0.60;0.55;;;;;;;17.47;100.00;101177.03;20801210;28;20136;-75
2022/10/26 01:27:18;;;;;;;0.60;0.60;;;;;;;17.47;100.00;101171.66;20798467;28;20045;-75
2022/10/26 01:37:27;;;;;;;0.70;0.70;;;;;;;17.39;100.00;101147.22;20783143;28;20073;-75
2022/10/26 01:47:30;;;;;;;0.80;0.80;;;;;;;17.47;100.00;101158.19;20797662;28;20053;-75
2022/10/26 01:57:34;;;;;;;0.88;0.80;;;;;;;17.37;100.00;101133.03;20797175;28;20099;-75
2022/10/26 02:07:38;;;;;;;0.98;0.70;;;;;;;17.46;100.00;101140.34;20797569;28;20053;-76
2022/10/26 02:17:55;;;;;;;0.87;0.60;;;;;;;17.46;100.00;101126.88;20797673;28;20475;-75
2022/10/26 02:28:02;;;;;;;0.70;0.70;;;;;;;17.37;100.00;101106.13;20795611;28;20516;-75
2022/10/26 02:38:06;;;;;;;0.90;0.60;;;;;;;17.45;100.00;101102.78;20779763;28;20049;-75
2022/10/26 02:48:08;;;;;;;0.40;0.40;;;;;;;17.45;100.00;101102.78;20795170;28;20504;-75
2022/10/26 02:58:17;;;;;;;0.93;0.70;;;;;;;17.09;100.00;101036.63;20806463;28;20506;-75
2022/10/26 03:08:19;;;;;;;0.80;0.77;;;;;;;17.03;100.00;101022.84;20810581;28;20115;-75
2022/10/26 03:18:20;;;;;;;0.57;0.57;;;;;;;17.43;100.00;101083.22;20811861;28;20589;-75
2022/10/26 03:28:22;;;;;;;0.80;0.70;;;;;;;17.23;100.00;101054.31;20810801;28;20055;-75
2022/10/26 03:38:23;;;;;;;0.52;0.50;;;;;;;17.42;100.00;101063.53;20810253;28;20136;-75
2022/10/26 03:48:25;;;;;;;1.00;0.77;;;;;;;17.42;100.00;101058.16;20808444;28;20061;-76
2022/10/26 03:58:26;;;;;;;0.60;0.60;;;;;;;17.42;100.00;101051.91;20789980;28;20088;-76
2022/10/26 04:08:28;;;;;;;0.50;0.50;;;;;;;17.42;100.00;101057.28;20804564;28;20049;-75
2022/10/26 04:18:29;;;;;;;0.73;0.70;;;;;;;17.40;100.00;101058.25;20805929;28;20840;-76
2022/10/26 04:28:31;;;;;;;0.60;0.50;;;;;;;17.41;100.00;101075.28;20806322;28;20148;-79
2022/10/26 04:38:32;;;;;;;0.55;0.55;;;;;;;17.38;100.00;101079.06;20806069;28;20059;-75
2022/10/26 04:48:33;;;;;;;1.00;0.90;;;;;;;17.31;100.00;101056.34;20803588;28;20050;-75
2022/10/26 04:58:35;;;;;;;0.68;0.68;;;;;;;17.40;100.00;101076.25;20800503;28;20037;-76
2022/10/26 05:08:36;;;;;;;0.95;0.68;;;;;;;17.38;100.00;101062.91;20784005;28;20054;-75
2022/10/26 05:18:38;;;;;;;0.50;0.50;;;;;;;17.38;100.00;101062.09;20754070;28;20048;-76
2022/10/26 05:28:39;;;;;;;0.60;0.50;;;;;;;17.37;100.00;101050.44;20738468;28;20136;-76
2022/10/26 05:38:40;;;;;;;1.08;0.60;;;;;;;17.38;100.00;101041.41;20774400;28;20144;-76
2022/10/26 05:48:42;;;;;;;0.65;0.65;;;;;;;17.37;100.00;101049.59;20767979;28;20474;-76
2022/10/26 05:58:44;;;;;;;0.50;0.50;;;;;;;17.37;100.00;101055.00;20769537;28;20049;-76
2022/10/26 06:08:46;;;;;;;0.47;0.47;;;;;;;17.37;100.00;101063.06;20775731;28;20084;-76
2022/10/26 06:19:15;;;;;;;1.08;0.95;;;;;;;17.36;100.00;101056.81;20751602;28;20069;-78
2022/10/26 06:29:19;;;;;;;0.90;0.85;;;;;;;17.42;100.00;101052.75;20769280;28;20127;-75
2022/10/26 06:39:21;;;;;;;0.77;0.68;;;;;;;17.37;100.00;101042.38;20768660;28;20060;-75
2022/10/26 06:49:30;;;;;;;3.17;0.80;;;;;;;17.52;100.00;101066.31;20783088;28;20414;-74
2022/10/26 06:59:37;;;;;;;4.38;1.30;;;;;;;17.59;100.00;101063.94;20756532;28;20128;-74
2022/10/26 07:09:39;;;;;;;6.57;1.17;;;;;;;17.61;100.00;101065.53;20749334;28;20490;-75
2022/10/26 07:19:43;;;;;;;2.33;0.95;;;;;;;17.51;100.00;101046.59;20768237;28;20099;-75
2022/10/26 07:29:44;;;;;;;1.83;0.90;;;;;;;17.67;100.00;101073.06;20765168;28;20498;-75
2022/10/26 07:39:46;;;;;;;2.42;1.20;;;;;;;17.71;100.00;101072.81;20770126;28;20045;-75
2022/10/26 07:49:47;;;;;;;1.75;0.80;;;;;;;17.75;100.00;101068.88;20786305;28;20465;-75
2022/10/26 07:59:49;;;;;;;2.53;1.00;;;;;;;17.79;100.00;101062.22;20784271;28;20050;-74
2022/10/26 08:09:51;;;;;;;1.15;0.88;;;;;;;17.65;100.00;101047.25;20763833;28;20061;-75
2022/10/26 08:19:52;;;;;;;2.83;1.10;;;;;;;17.69;100.00;101035.25;20781934;28;20042;-75
2022/10/26 08:29:53;;;;;;;1.30;0.93;;;;;;;17.83;100.00;101056.47;20781471;28;20053;-74
2022/10/26 08:39:55;;;;;;;3.03;1.27;;;;;;;17.85;100.00;101066.25;20780291;28;20060;-76
2022/10/26 08:50:12;;;;;;;1.40;0.80;;;;;;;17.09;100.00;100947.88;20777729;28;20053;-76
2022/10/26 09:00:17;;;;;;;4.70;1.02;;;;;;;17.60;100.00;101036.03;20763499;28;20508;-76
2022/10/26 09:10:36;;;;;;;1.63;1.00;;;;;;;17.90;100.00;101072.09;20750648;28;20057;-74
2022/10/26 09:20:55;;;;;;;2.92;1.30;;;;;;;17.86;100.00;101067.94;20751348;28;20122;-75
2022/10/26 09:30:58;;;;;;;3.78;0.85;;;;;;;17.79;100.00;101086.47;20695401;28;20107;-75
2022/10/26 09:41:25;;;;;;;1.90;0.85;;;;;;;17.75;100.00;101085.88;20765016;28;20056;-75
2022/10/26 09:51:34;;;;;;;2.60;1.00;;;;;;;17.72;100.00;101102.31;20755990;28;20103;-75
2022/10/26 10:01:36;;;;;;;4.20;1.10;;;;;;;17.69;100.00;101087.25;20761760;28;20052;-75
2022/10/26 10:12:02;;;;;;;3.05;1.08;;;;;;;17.68;100.00;101106.25;20764901;28;20038;-75
2022/10/26 10:22:07;;;;;;;2.10;0.80;;;;;;;17.65;100.00;101114.56;20776394;28;20083;-75
2022/10/26 10:32:15;;;;;;;2.77;0.93;;;;;;;17.40;100.00;101081.66;20776188;28;20542;-75
2022/10/26 10:42:21;;;;;;;1.85;0.95;;;;;;;17.64;100.00;101123.63;20808575;28;20083;-75
2022/10/26 10:52:25;;;;;;;1.80;0.70;;;;;;;17.64;100.00;101123.63;20771871;28;20128;-75
2022/10/26 11:02:59;;;;;;;1.42;0.80;;;;;;;17.64;100.00;101120.94;20760026;28;20049;-75
2022/10/26 11:13:13;;;;;;;4.72;1.45;;;;;;;17.57;100.00;101095.50;20765819;28;20528;-75
2022/10/26 11:23:21;;;;;;;2.10;0.80;;;;;;;17.29;100.00;101052.09;20780133;28;20057;-75
2022/10/26 11:33:32;;;;;;;1.88;0.80;;;;;;;17.65;100.00;101155.81;20777030;28;20510;-74
2022/10/26 11:43:42;;;;;;;2.58;1.27;;;;;;;17.76;100.00;101144.16;20791383;28;20498;-75
2022/10/26 11:53:45;;;;;;;3.00;1.30;;;;;;;17.81;100.00;101147.31;20810626;28;20057;-75
2022/10/26 12:03:48;;;;;;;2.25;1.13;;;;;;;17.83;100.00;101148.03;20711082;28;20137;-74
2022/10/26 12:13:55;;;;;;;1.58;1.00;;;;;;;17.86;100.00;101163.06;20744719;28;20045;-75
2022/10/26 12:24:01;;;;;;;2.63;1.05;;;;;;;17.81;100.00;101171.53;20768967;28;20053;-75
2022/10/26 12:34:34;;;;;;;2.00;1.00;;;;;;;17.83;100.00;101180.34;20772278;28;20516;-74
2022/10/26 12:44:36;;;;;;;2.38;1.30;;;;;;;17.90;100.00;101193.28;20796153;28;20053;-75
2022/10/26 12:54:47;;;;;;;1.83;1.13;;;;;;;17.90;100.00;101220.22;20786287;28;20045;-75
2022/10/26 13:05:11;;;;;;;2.22;0.80;;;;;;;17.90;100.00;101217.53;20788832;28;20053;-75
2022/10/26 13:15:19;;;;;;;1.63;0.70;;;;;;;17.91;100.00;101219.25;20797418;28;20442;-75
2022/10/26 13:25:26;;;;;;;4.03;1.38;;;;;;;17.56;100.00;101166.50;20760555;28;20054;-75
2022/10/26 13:35:29;;;;;;;2.38;0.90;;;;;;;17.80;100.00;101218.31;20782854;28;20128;-74
2022/10/26 13:45:33;;;;;;;2.03;1.17;;;;;;;17.82;100.00;101227.13;20757852;28;20596;-75
2022/10/26 13:55:42;;;;;;;1.55;0.77;;;;;;;17.61;100.00;101172.34;20687790;28;20140;-75
2022/10/26 14:05:45;;;;;;;1.17;0.88;;;;;;;17.83;100.00;101218.03;20745104;28;20053;-73
2022/10/26 14:15:46;;;;;;;1.60;0.70;;;;;;;17.96;100.00;101252.03;20776496;28;20049;-74
2022/10/26 14:25:53;;;;;;;3.15;0.80;;;;;;;17.79;100.00;101226.50;20769301;28;20499;-75
2022/10/26 14:35:59;;;;;;;1.27;0.82;;;;;;;17.94;100.00;101267.47;20765173;28;20048;-75
2022/10/26 14:46:01;;;;;;;2.63;0.80;;;;;;;17.94;100.00;101281.81;20734402;28;20049;-74
2022/10/26 14:56:04;;;;;;;1.13;0.70;;;;;;;17.95;100.00;101301.50;20748781;28;20053;-75
2022/10/26 15:06:28;;;;;;;1.00;0.75;;;;;;;17.94;100.00;101297.09;20740197;28;20697;-74
2022/10/26 15:16:33;;;;;;;1.15;0.63;;;;;;;17.63;100.00;101280.75;20736853;28;20041;-74
2022/10/26 15:26:41;;;;;;;2.47;1.02;;;;;;;17.85;100.00;101340.97;20747350;28;20041;-74
2022/10/26 15:36:42;;;;;;;1.33;0.82;;;;;;;17.95;100.00;101368.84;20732841;28;20069;-74
2022/10/26 15:46:44;;;;;;;1.45;0.98;;;;;;;17.95;100.00;101387.69;20740282;28;20053;-74
2022/10/26 15:56:46;;;;;;;1.42;0.57;;;;;;;17.95;100.00;101398.47;20738761;28;20072;-76
2022/10/26 16:06:48;;;;;;;1.27;0.70;;;;;;;17.95;100.00;101420.03;20764688;28;20084;-75
2022/10/26 16:16:49;;;;;;;1.38;0.70;;;;;;;17.93;100.00;101403.13;20772496;28;20045;-75
2022/10/26 16:26:51;;;;;;;0.95;0.77;;;;;;;17.71;100.00;101380.63;20786376;28;20542;-76
2022/10/26 16:36:52;;;;;;;0.77;0.60;;;;;;;17.94;100.00;101426.41;20770664;28;20056;-76
2022/10/26 16:46:54;;;;;;;1.73;0.60;;;;;;;17.81;100.00;101426.53;20701798;28;20405;-76
2022/10/26 16:56:55;;;;;;;1.70;0.80;;;;;;;17.87;100.00;101439.50;20791910;28;20419;-77
2022/10/26 17:06:57;;;;;;;1.25;0.80;;;;;;;17.68;100.00;101427.50;20805208;28;20501;-80
2022/10/26 17:16:58;;;;;;;1.45;0.70;;;;;;;17.82;100.00;101463.25;20807769;28;20057;-76
2022/10/26 17:27:00;;;;;;;1.73;0.70;;;;;;;17.79;100.00;101475.13;20801309;28;20139;-76
2022/10/26 17:37:01;;;;;;;0.73;0.70;;;;;;;17.67;100.00;101473.38;20797008;28;20494;-76
2022/10/26 17:47:03;;;;;;;1.88;0.90;;;;;;;17.76;100.00;101499.63;20803205;28;20076;-76
2022/10/26 17:57:04;;;;;;;0.68;0.60;;;;;;;17.74;100.00;101509.66;20750912;28;20049;-77
2022/10/26 18:07:05;;;;;;;1.25;0.70;;;;;;;17.66;100.00;101533.59;20729041;28;20179;-77
2022/10/26 18:17:07;;;;;;;1.05;0.70;;;;;;;17.74;100.00;101536.59;20798130;28;20080;-76
2022/10/26 18:27:08;;;;;;;1.25;0.60;;;;;;;17.73;100.00;101556.41;20797630;28;20075;-77
2022/10/26 18:37:10;;;;;;;2.28;0.70;;;;;;;17.72;100.00;101560.09;20799878;28;20498;-77
2022/10/26 18:47:12;;;;;;;1.15;0.70;;;;;;;17.62;100.00;101564.44;20793532;28;20046;-77
2022/10/26 18:57:14;;;;;;;1.40;0.80;;;;;;;17.61;100.00;101573.50;20750591;28;20065;-77
2022/10/26 19:07:16;;;;;;;0.73;0.73;;;;;;;17.60;100.00;101571.78;20762733;28;20435;-76
2022/10/26 19:17:17;;;;;;;0.93;0.80;;;;;;;17.69;100.00;101606.94;20794702;28;20160;-76
2022/10/26 19:27:19;;;;;;;1.88;0.80;;;;;;;17.28;100.00;101540.13;20790304;28;20049;-77
2022/10/26 19:37:20;;;;;;;1.75;0.88;;;;;;;17.69;100.00;101614.19;20803072;28;20041;-76
2022/10/26 19:47:26;;;;;;;1.42;1.00;;;;;;;17.33;100.00;101570.25;20807548;28;20064;-76
2022/10/26 19:57:27;;;;;;;1.27;0.65;;;;;;;17.68;100.00;101645.63;20806176;28;20091;-76
2022/10/26 20:07:29;;;;;;;0.70;0.60;;;;;;;17.67;100.00;101653.81;20804232;28;20046;-76
2022/10/26 20:17:33;;;;;;;1.10;0.95;;;;;;;17.54;100.00;101649.34;20822617;28;20430;-77
2022/10/26 20:27:36;;;;;;;1.00;0.55;;;;;;;17.66;100.00;101673.63;20805021;28;20076;-76
2022/10/26 20:37:38;;;;;;;1.35;0.88;;;;;;;17.35;100.00;101627.50;20785890;28;20055;-77
2022/10/26 20:47:40;;;;;;;0.80;0.80;;;;;;;17.66;100.00;101684.41;20803907;28;20414;-76
2022/10/26 20:57:50;;;;;;;0.63;0.57;;;;;;;17.67;100.00;101691.50;20805953;28;20057;-76
2022/10/26 21:07:51;;;;;;;1.10;0.60;;;;;;;17.53;100.00;101671.88;20736295;28;20139;-77
2022/10/26 21:17:53;;;;;;;2.25;0.77;;;;;;;17.65;100.00;101701.53;20752227;28;20516;-76
2022/10/26 21:27:55;;;;;;;1.45;0.70;;;;;;;17.64;100.00;101707.88;20801965;28;20054;-76
2022/10/26 21:37:57;;;;;;;1.58;0.73;;;;;;;17.63;100.00;101720.50;20785911;28;20119;-77
2022/10/26 21:47:58;;;;;;;1.30;0.68;;;;;;;17.42;100.00;101687.09;20783128;28;20076;-77
2022/10/26 21:58:00;;;;;;;1.45;0.90;;;;;;;17.63;100.00;101744.75;20806362;28;20402;-76
2022/10/26 22:08:06;;;;;;;1.88;0.70;;;;;;;17.62;100.00;101747.53;20793353;28;20062;-76
2022/10/26 22:18:08;;;;;;;1.27;0.80;;;;;;;17.32;100.00;101690.47;20793006;28;20053;-76
2022/10/26 22:28:09;;;;;;;0.85;0.63;;;;;;;17.62;100.00;101732.25;20805213;28;20052;-77
2022/10/26 22:38:10;;;;;;;1.52;0.80;;;;;;;17.61;100.00;101735.03;20796686;28;20613;-78
2022/10/26 22:48:12;;;;;;;0.70;0.68;;;;;;;17.61;100.00;101751.19;20793842;28;20088;-81
2022/10/26 22:58:14;;;;;;;1.00;0.70;;;;;;;17.50;100.00;101749.31;20794262;28;20597;-77
2022/10/26 23:08:16;;;;;;;0.70;0.70;;;;;;;17.42;100.00;101725.66;20800791;28;20060;-77
2022/10/26 23:18:17;;;;;;;1.55;0.77;;;;;;;17.40;100.00;101735.69;20801688;28;20062;-76
2022/10/26 23:28:19;;;;;;;0.70;0.65;;;;;;;17.60;100.00;101781.78;20801051;28;20049;-77
2022/10/26 23:38:20;;;;;;;0.70;0.50;;;;;;;17.20;100.00;101721.81;20812137;28;20069;-76
2022/10/26 23:48:24;;;;;;;0.90;0.50;;;;;;;17.34;100.00;101749.59;20812746;28;20502;-76
2022/10/26 23:58:26;;;;;;;0.80;0.60;;;;;;;17.57;100.00;101801.75;20803866;28;20136;-76
